sensor_id;sensor_type;location;lat;lon;timestamp;P1;durP1;ratioP1;P2;durP2;ratioP2
5483;SDS011;2764;48.794;8.326;2023-01-31T00:01:08;9.30;;;5.82;;
5483;SDS011;2764;48.794;8.326;2023-01-31T00:02:11;6.85;;;5.65;;
5483;SDS011;2764;48.794;8.326;2023-01-31T00:03:13;6.65;;;6.10;;
5483;SDS011;2764;48.794;8.326;2023-01-31T00:04:14;7.82;;;5.40;;
5483;SDS011;2764;48.794;8.326;2023-01-31T00:05:17;8.10;;;5.88;;
5483;SDS011;2764;48.794;8.326;2023-01-31T00:06:27;8.30;;;5.35;;
5483;SDS011;2764;48.794;8.326;2023-01-31T00:07:31;8.65;;;5.10;;
5483;SDS011;2764;48.794;8.326;2023-01-31T00:08:32;6.00;;;5.40;;
5483;SDS011;2764;48.794;8.326;2023-01-31T00:09:34;6.70;;;5.60;;
5483;SDS011;2764;48.794;8.326;2023-01-31T00:10:36;8.50;;;4.60;;
5483;SDS011;2764;48.794;8.326;2023-01-31T00:11:38;7.75;;;4.75;;
5483;SDS011;2764;48.794;8.326;2023-01-31T00:12:41;9.50;;;4.65;;
5483;SDS011;2764;48.794;8.326;2023-01-31T00:13:43;8.70;;;5.43;;
5483;SDS011;2764;48.794;8.326;2023-01-31T00:14:45;6.13;;;5.53;;
5483;SDS011;2764;48.794;8.326;2023-01-31T00:15:47;7.28;;;5.60;;
5483;SDS011;2764;48.794;8.326;2023-01-31T00:16:48;5.53;;;4.35;;
5483;SDS011;2764;48.794;8.326;2023-01-31T00:17:50;11.48;;;5.40;;
5483;SDS011;2764;48.794;8.326;2023-01-31T00:18:52;7.22;;;5.38;;
5483;SDS011;2764;48.794;8.326;2023-01-31T00:19:53;5.50;;;5.00;;
5483;SDS011;2764;48.794;8.326;2023-01-31T00:20:55;5.72;;;5.18;;
5483;SDS011;2764;48.794;8.326;2023-01-31T00:21:57;7.78;;;4.88;;
5483;SDS011;2764;48.794;8.326;2023-01-31T00:22:58;5.50;;;5.00;;
5483;SDS011;2764;48.794;8.326;2023-01-31T00:24:00;5.60;;;5.03;;
5483;SDS011;2764;48.794;8.326;2023-01-31T00:25:05;5.00;;;4.60;;
5483;SDS011;2764;48.794;8.326;2023-01-31T00:27:16;7.28;;;4.90;;
5483;SDS011;2764;48.794;8.326;2023-01-31T00:28:18;10.05;;;5.25;;
5483;SDS011;2764;48.794;8.326;2023-01-31T00:29:20;6.15;;;5.05;;
5483;SDS011;2764;48.794;8.326;2023-01-31T00:30:21;6.38;;;4.82;;
5483;SDS011;2764;48.794;8.326;2023-01-31T00:31:24;6.20;;;5.63;;
5483;SDS011;2764;48.794;8.326;2023-01-31T00:32:27;5.40;;;4.90;;
5483;SDS011;2764;48.794;8.326;2023-01-31T00:33:29;4.93;;;4.53;;
5483;SDS011;2764;48.794;8.326;2023-01-31T00:34:30;6.18;;;4.57;;
5483;SDS011;2764;48.794;8.326;2023-01-31T00:35:32;9.05;;;5.85;;
5483;SDS011;2764;48.794;8.326;2023-01-31T00:36:34;8.05;;;5.22;;
5483;SDS011;2764;48.794;8.326;2023-01-31T00:37:37;5.70;;;5.18;;
5483;SDS011;2764;48.794;8.326;2023-01-31T00:38:39;5.80;;;4.93;;
5483;SDS011;2764;48.794;8.326;2023-01-31T00:39:42;6.10;;;4.75;;
5483;SDS011;2764;48.794;8.326;2023-01-31T00:40:51;6.10;;;4.53;;
5483;SDS011;2764;48.794;8.326;2023-01-31T00:41:53;6.20;;;5.25;;
5483;SDS011;2764;48.794;8.326;2023-01-31T00:42:55;4.45;;;4.13;;
5483;SDS011;2764;48.794;8.326;2023-01-31T00:43:57;5.95;;;5.15;;
5483;SDS011;2764;48.794;8.326;2023-01-31T00:44:58;8.40;;;5.57;;
5483;SDS011;2764;48.794;8.326;2023-01-31T00:46:00;6.95;;;5.10;;
5483;SDS011;2764;48.794;8.326;2023-01-31T00:47:02;12.50;;;5.30;;
5483;SDS011;2764;48.794;8.326;2023-01-31T00:48:04;8.95;;;5.63;;
5483;SDS011;2764;48.794;8.326;2023-01-31T00:49:06;5.32;;;4.85;;
5483;SDS011;2764;48.794;8.326;2023-01-31T00:50:08;5.22;;;4.80;;
5483;SDS011;2764;48.794;8.326;2023-01-31T00:51:10;5.43;;;4.93;;
5483;SDS011;2764;48.794;8.326;2023-01-31T00:52:12;12.40;;;4.57;;
5483;SDS011;2764;48.794;8.326;2023-01-31T00:53:14;5.00;;;4.60;;
5483;SDS011;2764;48.794;8.326;2023-01-31T00:54:17;12.80;;;5.50;;
5483;SDS011;2764;48.794;8.326;2023-01-31T00:55:19;5.70;;;5.10;;
5483;SDS011;2764;48.794;8.326;2023-01-31T00:56:22;7.82;;;4.70;;
5483;SDS011;2764;48.794;8.326;2023-01-31T00:57:24;8.52;;;5.65;;
5483;SDS011;2764;48.794;8.326;2023-01-31T00:58:26;7.07;;;4.75;;
5483;SDS011;2764;48.794;8.326;2023-01-31T00:59:28;8.43;;;5.80;;
5483;SDS011;2764;48.794;8.326;2023-01-31T01:00:30;6.25;;;5.47;;
5483;SDS011;2764;48.794;8.326;2023-01-31T01:01:31;7.55;;;4.95;;
5483;SDS011;2764;48.794;8.326;2023-01-31T01:02:33;7.43;;;6.05;;
5483;SDS011;2764;48.794;8.326;2023-01-31T01:03:36;7.32;;;5.50;;
5483;SDS011;2764;48.794;8.326;2023-01-31T01:04:38;7.18;;;4.93;;
5483;SDS011;2764;48.794;8.326;2023-01-31T01:05:40;11.00;;;5.50;;
5483;SDS011;2764;48.794;8.326;2023-01-31T01:06:42;14.85;;;6.07;;
5483;SDS011;2764;48.794;8.326;2023-01-31T01:07:43;16.02;;;6.60;;
5483;SDS011;2764;48.794;8.326;2023-01-31T01:08:45;7.53;;;6.07;;
5483;SDS011;2764;48.794;8.326;2023-01-31T01:09:48;6.38;;;5.53;;
5483;SDS011;2764;48.794;8.326;2023-01-31T01:10:50;7.70;;;5.18;;
5483;SDS011;2764;48.794;8.326;2023-01-31T01:11:51;6.72;;;5.22;;
5483;SDS011;2764;48.794;8.326;2023-01-31T01:12:57;14.23;;;6.30;;
5483;SDS011;2764;48.794;8.326;2023-01-31T01:13:59;8.40;;;5.50;;
5483;SDS011;2764;48.794;8.326;2023-01-31T01:15:01;10.88;;;5.50;;
5483;SDS011;2764;48.794;8.326;2023-01-31T01:16:13;6.20;;;5.00;;
5483;SDS011;2764;48.794;8.326;2023-01-31T01:17:17;6.80;;;4.90;;
5483;SDS011;2764;48.794;8.326;2023-01-31T01:18:18;7.47;;;5.40;;
5483;SDS011;2764;48.794;8.326;2023-01-31T01:19:20;10.30;;;6.05;;
5483;SDS011;2764;48.794;8.326;2023-01-31T01:20:22;7.70;;;5.60;;
5483;SDS011;2764;48.794;8.326;2023-01-31T01:21:24;7.40;;;5.80;;
5483;SDS011;2764;48.794;8.326;2023-01-31T01:22:29;7.05;;;5.38;;
5483;SDS011;2764;48.794;8.326;2023-01-31T01:23:31;10.23;;;5.72;;
5483;SDS011;2764;48.794;8.326;2023-01-31T01:24:33;6.10;;;5.50;;
5483;SDS011;2764;48.794;8.326;2023-01-31T01:25:40;13.35;;;6.22;;
5483;SDS011;2764;48.794;8.326;2023-01-31T01:26:44;7.55;;;5.45;;
5483;SDS011;2764;48.794;8.326;2023-01-31T01:27:46;6.38;;;4.78;;
5483;SDS011;2764;48.794;8.326;2023-01-31T01:28:48;7.72;;;5.38;;
5483;SDS011;2764;48.794;8.326;2023-01-31T01:29:50;6.90;;;5.57;;
5483;SDS011;2764;48.794;8.326;2023-01-31T01:30:52;7.35;;;6.10;;
5483;SDS011;2764;48.794;8.326;2023-01-31T01:31:53;7.30;;;6.20;;
5483;SDS011;2764;48.794;8.326;2023-01-31T01:32:55;6.68;;;5.60;;
5483;SDS011;2764;48.794;8.326;2023-01-31T01:33:58;6.20;;;5.60;;
5483;SDS011;2764;48.794;8.326;2023-01-31T01:35:01;18.67;;;6.13;;
5483;SDS011;2764;48.794;8.326;2023-01-31T01:36:04;9.27;;;6.05;;
5483;SDS011;2764;48.794;8.326;2023-01-31T01:37:07;7.05;;;6.30;;
5483;SDS011;2764;48.794;8.326;2023-01-31T01:38:20;9.52;;;6.20;;
5483;SDS011;2764;48.794;8.326;2023-01-31T01:39:22;6.80;;;5.93;;
5483;SDS011;2764;48.794;8.326;2023-01-31T01:40:24;7.03;;;6.32;;
5483;SDS011;2764;48.794;8.326;2023-01-31T01:41:25;10.93;;;6.45;;
5483;SDS011;2764;48.794;8.326;2023-01-31T01:42:29;11.10;;;6.00;;
5483;SDS011;2764;48.794;8.326;2023-01-31T01:44:58;9.30;;;6.03;;
5483;SDS011;2764;48.794;8.326;2023-01-31T01:46:02;10.40;;;6.10;;
5483;SDS011;2764;48.794;8.326;2023-01-31T01:47:03;9.65;;;6.68;;
5483;SDS011;2764;48.794;8.326;2023-01-31T01:48:05;8.40;;;6.60;;
5483;SDS011;2764;48.794;8.326;2023-01-31T01:49:19;10.02;;;5.43;;
5483;SDS011;2764;48.794;8.326;2023-01-31T01:50:37;6.72;;;6.00;;
5483;SDS011;2764;48.794;8.326;2023-01-31T01:51:42;9.43;;;6.22;;
5483;SDS011;2764;48.794;8.326;2023-01-31T01:52:47;7.93;;;6.00;;
5483;SDS011;2764;48.794;8.326;2023-01-31T01:54:18;7.68;;;6.13;;
5483;SDS011;2764;48.794;8.326;2023-01-31T01:55:32;12.95;;;6.97;;
5483;SDS011;2764;48.794;8.326;2023-01-31T01:56:38;8.95;;;6.22;;
5483;SDS011;2764;48.794;8.326;2023-01-31T01:57:43;6.93;;;5.78;;
5483;SDS011;2764;48.794;8.326;2023-01-31T02:00:16;6.60;;;5.90;;
5483;SDS011;2764;48.794;8.326;2023-01-31T02:01:21;11.75;;;6.85;;
5483;SDS011;2764;48.794;8.326;2023-01-31T02:02:26;8.02;;;6.93;;
5483;SDS011;2764;48.794;8.326;2023-01-31T02:03:28;7.75;;;6.40;;
5483;SDS011;2764;48.794;8.326;2023-01-31T02:04:31;11.50;;;6.47;;
5483;SDS011;2764;48.794;8.326;2023-01-31T02:05:43;8.95;;;6.90;;
5483;SDS011;2764;48.794;8.326;2023-01-31T02:06:57;7.72;;;6.85;;
5483;SDS011;2764;48.794;8.326;2023-01-31T02:08:00;9.82;;;6.78;;
5483;SDS011;2764;48.794;8.326;2023-01-31T02:09:04;12.40;;;6.70;;
5483;SDS011;2764;48.794;8.326;2023-01-31T02:10:16;12.60;;;7.60;;
5483;SDS011;2764;48.794;8.326;2023-01-31T02:11:36;13.15;;;7.30;;
5483;SDS011;2764;48.794;8.326;2023-01-31T02:12:38;10.98;;;7.30;;
5483;SDS011;2764;48.794;8.326;2023-01-31T02:13:40;12.40;;;7.47;;
5483;SDS011;2764;48.794;8.326;2023-01-31T02:14:45;10.10;;;6.75;;
5483;SDS011;2764;48.794;8.326;2023-01-31T02:15:48;8.02;;;6.43;;
5483;SDS011;2764;48.794;8.326;2023-01-31T02:16:52;10.98;;;7.35;;
5483;SDS011;2764;48.794;8.326;2023-01-31T02:17:54;12.60;;;7.03;;
5483;SDS011;2764;48.794;8.326;2023-01-31T02:18:56;12.52;;;6.80;;
5483;SDS011;2764;48.794;8.326;2023-01-31T02:27:47;17.58;;;7.95;;
5483;SDS011;2764;48.794;8.326;2023-01-31T02:33:05;12.38;;;7.50;;
5483;SDS011;2764;48.794;8.326;2023-01-31T02:38:18;13.63;;;8.00;;
5483;SDS011;2764;48.794;8.326;2023-01-31T02:41:31;10.40;;;6.55;;
5483;SDS011;2764;48.794;8.326;2023-01-31T02:44:27;13.10;;;8.60;;
5483;SDS011;2764;48.794;8.326;2023-01-31T02:45:59;11.23;;;8.07;;
5483;SDS011;2764;48.794;8.326;2023-01-31T02:48:24;8.15;;;7.20;;
5483;SDS011;2764;48.794;8.326;2023-01-31T02:49:46;9.35;;;7.15;;
5483;SDS011;2764;48.794;8.326;2023-01-31T02:51:54;14.43;;;8.02;;
5483;SDS011;2764;48.794;8.326;2023-01-31T02:53:35;12.57;;;8.70;;
5483;SDS011;2764;48.794;8.326;2023-01-31T02:54:50;10.52;;;8.20;;
5483;SDS011;2764;48.794;8.326;2023-01-31T02:56:17;14.38;;;7.80;;
5483;SDS011;2764;48.794;8.326;2023-01-31T02:57:24;12.07;;;8.75;;
5483;SDS011;2764;48.794;8.326;2023-01-31T02:58:27;10.45;;;7.85;;
5483;SDS011;2764;48.794;8.326;2023-01-31T02:59:33;15.73;;;8.73;;
5483;SDS011;2764;48.794;8.326;2023-01-31T03:00:37;12.38;;;8.57;;
5483;SDS011;2764;48.794;8.326;2023-01-31T03:01:43;20.08;;;8.27;;
5483;SDS011;2764;48.794;8.326;2023-01-31T03:02:47;10.73;;;8.40;;
5483;SDS011;2764;48.794;8.326;2023-01-31T03:03:48;11.98;;;8.20;;
5483;SDS011;2764;48.794;8.326;2023-01-31T03:04:52;13.35;;;8.30;;
5483;SDS011;2764;48.794;8.326;2023-01-31T03:07:27;14.85;;;6.85;;
5483;SDS011;2764;48.794;8.326;2023-01-31T03:08:34;10.00;;;8.70;;
5483;SDS011;2764;48.794;8.326;2023-01-31T03:12:15;10.52;;;8.40;;
5483;SDS011;2764;48.794;8.326;2023-01-31T03:14:39;14.68;;;8.60;;
5483;SDS011;2764;48.794;8.326;2023-01-31T03:18:41;13.98;;;7.95;;
5483;SDS011;2764;48.794;8.326;2023-01-31T03:21:08;13.75;;;8.73;;
5483;SDS011;2764;48.794;8.326;2023-01-31T03:22:16;12.70;;;8.98;;
5483;SDS011;2764;48.794;8.326;2023-01-31T03:23:24;14.73;;;8.95;;
5483;SDS011;2764;48.794;8.326;2023-01-31T03:24:31;14.88;;;9.30;;
5483;SDS011;2764;48.794;8.326;2023-01-31T03:25:34;17.65;;;9.23;;
5483;SDS011;2764;48.794;8.326;2023-01-31T03:26:38;13.10;;;8.80;;
5483;SDS011;2764;48.794;8.326;2023-01-31T03:27:41;15.55;;;8.77;;
5483;SDS011;2764;48.794;8.326;2023-01-31T03:28:48;14.30;;;9.35;;
5483;SDS011;2764;48.794;8.326;2023-01-31T03:29:58;10.38;;;7.88;;
5483;SDS011;2764;48.794;8.326;2023-01-31T03:31:18;10.45;;;8.10;;
5483;SDS011;2764;48.794;8.326;2023-01-31T03:32:26;14.40;;;9.00;;
5483;SDS011;2764;48.794;8.326;2023-01-31T03:33:34;11.98;;;9.32;;
5483;SDS011;2764;48.794;8.326;2023-01-31T03:34:44;17.60;;;9.57;;
5483;SDS011;2764;48.794;8.326;2023-01-31T03:35:49;13.60;;;8.80;;
5483;SDS011;2764;48.794;8.326;2023-01-31T03:37:02;14.13;;;8.18;;
5483;SDS011;2764;48.794;8.326;2023-01-31T03:38:16;14.98;;;9.10;;
5483;SDS011;2764;48.794;8.326;2023-01-31T03:39:38;11.75;;;8.77;;
5483;SDS011;2764;48.794;8.326;2023-01-31T03:40:46;14.50;;;8.35;;
5483;SDS011;2764;48.794;8.326;2023-01-31T03:42:01;13.95;;;9.07;;
5483;SDS011;2764;48.794;8.326;2023-01-31T03:46:42;17.95;;;10.60;;
5483;SDS011;2764;48.794;8.326;2023-01-31T03:47:49;11.45;;;9.90;;
5483;SDS011;2764;48.794;8.326;2023-01-31T03:48:54;16.05;;;10.70;;
5483;SDS011;2764;48.794;8.326;2023-01-31T03:50:00;20.65;;;11.48;;
5483;SDS011;2764;48.794;8.326;2023-01-31T03:51:06;22.05;;;11.10;;
5483;SDS011;2764;48.794;8.326;2023-01-31T03:52:17;27.48;;;11.82;;
5483;SDS011;2764;48.794;8.326;2023-01-31T03:53:34;20.20;;;11.07;;
5483;SDS011;2764;48.794;8.326;2023-01-31T03:54:39;18.23;;;11.80;;
5483;SDS011;2764;48.794;8.326;2023-01-31T03:55:51;18.77;;;11.43;;
5483;SDS011;2764;48.794;8.326;2023-01-31T03:56:57;21.35;;;10.85;;
5483;SDS011;2764;48.794;8.326;2023-01-31T03:58:03;22.98;;;10.68;;
5483;SDS011;2764;48.794;8.326;2023-01-31T03:59:12;18.40;;;11.38;;
5483;SDS011;2764;48.794;8.326;2023-01-31T04:00:18;17.23;;;10.68;;
5483;SDS011;2764;48.794;8.326;2023-01-31T04:01:24;18.60;;;10.65;;
5483;SDS011;2764;48.794;8.326;2023-01-31T04:02:30;19.38;;;11.05;;
5483;SDS011;2764;48.794;8.326;2023-01-31T04:03:38;16.95;;;10.85;;
5483;SDS011;2764;48.794;8.326;2023-01-31T04:04:49;29.02;;;10.70;;
5483;SDS011;2764;48.794;8.326;2023-01-31T04:05:56;19.90;;;11.90;;
5483;SDS011;2764;48.794;8.326;2023-01-31T04:06:58;14.85;;;11.18;;
5483;SDS011;2764;48.794;8.326;2023-01-31T04:08:01;24.70;;;11.98;;
5483;SDS011;2764;48.794;8.326;2023-01-31T04:09:02;15.90;;;10.32;;
5483;SDS011;2764;48.794;8.326;2023-01-31T04:10:06;20.90;;;10.60;;
5483;SDS011;2764;48.794;8.326;2023-01-31T04:11:13;23.35;;;10.85;;
5483;SDS011;2764;48.794;8.326;2023-01-31T04:12:15;15.50;;;11.27;;
5483;SDS011;2764;48.794;8.326;2023-01-31T04:13:17;17.65;;;11.75;;
5483;SDS011;2764;48.794;8.326;2023-01-31T04:14:18;17.30;;;10.45;;
5483;SDS011;2764;48.794;8.326;2023-01-31T04:15:20;21.17;;;12.00;;
5483;SDS011;2764;48.794;8.326;2023-01-31T04:16:22;16.80;;;11.98;;
5483;SDS011;2764;48.794;8.326;2023-01-31T04:17:24;20.25;;;10.32;;
5483;SDS011;2764;48.794;8.326;2023-01-31T04:18:26;26.13;;;12.70;;
5483;SDS011;2764;48.794;8.326;2023-01-31T04:19:28;21.40;;;11.85;;
5483;SDS011;2764;48.794;8.326;2023-01-31T04:20:30;22.33;;;11.88;;
5483;SDS011;2764;48.794;8.326;2023-01-31T04:21:32;22.05;;;11.90;;
5483;SDS011;2764;48.794;8.326;2023-01-31T04:22:34;21.48;;;12.50;;
5483;SDS011;2764;48.794;8.326;2023-01-31T04:23:35;19.33;;;11.48;;
5483;SDS011;2764;48.794;8.326;2023-01-31T04:24:37;21.33;;;11.70;;
5483;SDS011;2764;48.794;8.326;2023-01-31T04:25:39;14.70;;;10.98;;
5483;SDS011;2764;48.794;8.326;2023-01-31T04:26:41;25.35;;;12.20;;
5483;SDS011;2764;48.794;8.326;2023-01-31T04:27:42;26.90;;;12.57;;
5483;SDS011;2764;48.794;8.326;2023-01-31T04:28:44;34.55;;;13.20;;
5483;SDS011;2764;48.794;8.326;2023-01-31T04:29:45;19.75;;;11.20;;
5483;SDS011;2764;48.794;8.326;2023-01-31T04:30:51;16.48;;;11.70;;
5483;SDS011;2764;48.794;8.326;2023-01-31T04:31:56;14.15;;;10.73;;
5483;SDS011;2764;48.794;8.326;2023-01-31T04:32:58;19.13;;;11.80;;
5483;SDS011;2764;48.794;8.326;2023-01-31T04:34:00;22.10;;;12.43;;
5483;SDS011;2764;48.794;8.326;2023-01-31T04:35:01;29.38;;;13.55;;
5483;SDS011;2764;48.794;8.326;2023-01-31T04:36:03;21.25;;;12.23;;
5483;SDS011;2764;48.794;8.326;2023-01-31T04:37:05;23.10;;;13.75;;
5483;SDS011;2764;48.794;8.326;2023-01-31T04:38:07;23.80;;;11.30;;
5483;SDS011;2764;48.794;8.326;2023-01-31T04:39:09;20.13;;;11.82;;
5483;SDS011;2764;48.794;8.326;2023-01-31T04:40:11;18.15;;;13.07;;
5483;SDS011;2764;48.794;8.326;2023-01-31T04:41:15;16.85;;;11.75;;
5483;SDS011;2764;48.794;8.326;2023-01-31T04:42:17;21.80;;;12.68;;
5483;SDS011;2764;48.794;8.326;2023-01-31T04:43:19;15.77;;;11.55;;
5483;SDS011;2764;48.794;8.326;2023-01-31T04:44:21;17.77;;;11.55;;
5483;SDS011;2764;48.794;8.326;2023-01-31T04:45:23;19.13;;;11.88;;
5483;SDS011;2764;48.794;8.326;2023-01-31T04:46:25;23.23;;;12.20;;
5483;SDS011;2764;48.794;8.326;2023-01-31T04:47:26;13.25;;;10.20;;
5483;SDS011;2764;48.794;8.326;2023-01-31T04:48:28;21.08;;;11.50;;
5483;SDS011;2764;48.794;8.326;2023-01-31T04:49:30;20.73;;;11.82;;
5483;SDS011;2764;48.794;8.326;2023-01-31T04:50:32;22.90;;;12.18;;
5483;SDS011;2764;48.794;8.326;2023-01-31T04:51:33;19.95;;;10.82;;
5483;SDS011;2764;48.794;8.326;2023-01-31T04:52:35;16.40;;;10.95;;
5483;SDS011;2764;48.794;8.326;2023-01-31T04:53:38;19.30;;;11.35;;
5483;SDS011;2764;48.794;8.326;2023-01-31T04:54:40;25.33;;;12.25;;
5483;SDS011;2764;48.794;8.326;2023-01-31T04:55:42;16.30;;;12.10;;
5483;SDS011;2764;48.794;8.326;2023-01-31T04:56:44;22.17;;;12.43;;
5483;SDS011;2764;48.794;8.326;2023-01-31T04:57:45;15.77;;;11.23;;
5483;SDS011;2764;48.794;8.326;2023-01-31T04:58:47;17.10;;;12.63;;
5483;SDS011;2764;48.794;8.326;2023-01-31T04:59:48;15.23;;;11.00;;
5483;SDS011;2764;48.794;8.326;2023-01-31T05:00:52;18.95;;;11.90;;
5483;SDS011;2764;48.794;8.326;2023-01-31T05:01:55;18.80;;;12.68;;
5483;SDS011;2764;48.794;8.326;2023-01-31T05:02:57;16.02;;;11.57;;
5483;SDS011;2764;48.794;8.326;2023-01-31T05:03:58;17.15;;;11.23;;
5483;SDS011;2764;48.794;8.326;2023-01-31T05:05:00;15.95;;;11.38;;
5483;SDS011;2764;48.794;8.326;2023-01-31T05:06:03;22.92;;;11.73;;
5483;SDS011;2764;48.794;8.326;2023-01-31T05:07:04;18.75;;;12.18;;
5483;SDS011;2764;48.794;8.326;2023-01-31T05:08:07;22.02;;;13.32;;
5483;SDS011;2764;48.794;8.326;2023-01-31T05:09:08;18.55;;;12.50;;
5483;SDS011;2764;48.794;8.326;2023-01-31T05:10:12;25.00;;;13.75;;
5483;SDS011;2764;48.794;8.326;2023-01-31T05:11:14;26.65;;;12.68;;
5483;SDS011;2764;48.794;8.326;2023-01-31T05:12:15;22.40;;;13.05;;
5483;SDS011;2764;48.794;8.326;2023-01-31T05:13:17;23.20;;;12.85;;
5483;SDS011;2764;48.794;8.326;2023-01-31T05:14:18;25.65;;;12.60;;
5483;SDS011;2764;48.794;8.326;2023-01-31T05:15:21;26.88;;;11.60;;
5483;SDS011;2764;48.794;8.326;2023-01-31T05:16:23;27.33;;;12.77;;
5483;SDS011;2764;48.794;8.326;2023-01-31T05:17:25;21.25;;;12.15;;
5483;SDS011;2764;48.794;8.326;2023-01-31T05:18:29;21.15;;;12.02;;
5483;SDS011;2764;48.794;8.326;2023-01-31T05:19:31;17.25;;;11.57;;
5483;SDS011;2764;48.794;8.326;2023-01-31T05:20:36;20.00;;;13.20;;
5483;SDS011;2764;48.794;8.326;2023-01-31T05:21:41;21.73;;;13.15;;
5483;SDS011;2764;48.794;8.326;2023-01-31T05:22:55;21.58;;;13.20;;
5483;SDS011;2764;48.794;8.326;2023-01-31T05:23:58;23.05;;;11.95;;
5483;SDS011;2764;48.794;8.326;2023-01-31T05:24:59;21.13;;;11.77;;
5483;SDS011;2764;48.794;8.326;2023-01-31T05:26:01;21.67;;;13.82;;
5483;SDS011;2764;48.794;8.326;2023-01-31T05:27:04;34.60;;;14.05;;
5483;SDS011;2764;48.794;8.326;2023-01-31T05:28:06;19.80;;;12.55;;
5483;SDS011;2764;48.794;8.326;2023-01-31T05:29:08;23.13;;;12.68;;
5483;SDS011;2764;48.794;8.326;2023-01-31T05:30:10;23.17;;;12.93;;
5483;SDS011;2764;48.794;8.326;2023-01-31T05:31:12;30.30;;;15.02;;
5483;SDS011;2764;48.794;8.326;2023-01-31T05:32:14;28.80;;;15.02;;
5483;SDS011;2764;48.794;8.326;2023-01-31T05:33:17;23.35;;;14.50;;
5483;SDS011;2764;48.794;8.326;2023-01-31T05:34:21;24.02;;;14.20;;
5483;SDS011;2764;48.794;8.326;2023-01-31T05:35:25;22.98;;;14.05;;
5483;SDS011;2764;48.794;8.326;2023-01-31T05:36:27;24.25;;;13.02;;
5483;SDS011;2764;48.794;8.326;2023-01-31T05:37:29;19.33;;;12.70;;
5483;SDS011;2764;48.794;8.326;2023-01-31T05:38:31;22.88;;;13.30;;
5483;SDS011;2764;48.794;8.326;2023-01-31T05:39:33;19.88;;;11.18;;
5483;SDS011;2764;48.794;8.326;2023-01-31T05:40:36;20.42;;;12.25;;
5483;SDS011;2764;48.794;8.326;2023-01-31T05:41:37;20.17;;;12.95;;
5483;SDS011;2764;48.794;8.326;2023-01-31T05:42:39;24.95;;;14.00;;
5483;SDS011;2764;48.794;8.326;2023-01-31T05:43:41;24.67;;;14.00;;
5483;SDS011;2764;48.794;8.326;2023-01-31T05:44:43;26.58;;;17.10;;
5483;SDS011;2764;48.794;8.326;2023-01-31T05:45:46;32.22;;;17.67;;
5483;SDS011;2764;48.794;8.326;2023-01-31T05:46:48;26.85;;;18.10;;
5483;SDS011;2764;48.794;8.326;2023-01-31T05:47:50;35.03;;;20.02;;
5483;SDS011;2764;48.794;8.326;2023-01-31T05:48:53;27.67;;;18.52;;
5483;SDS011;2764;48.794;8.326;2023-01-31T05:49:54;30.15;;;19.35;;
5483;SDS011;2764;48.794;8.326;2023-01-31T05:50:56;33.50;;;19.25;;
5483;SDS011;2764;48.794;8.326;2023-01-31T05:51:58;27.92;;;16.60;;
5483;SDS011;2764;48.794;8.326;2023-01-31T05:53:01;31.60;;;18.70;;
5483;SDS011;2764;48.794;8.326;2023-01-31T05:54:06;40.30;;;18.70;;
5483;SDS011;2764;48.794;8.326;2023-01-31T05:55:08;24.63;;;16.92;;
5483;SDS011;2764;48.794;8.326;2023-01-31T05:56:10;28.88;;;18.00;;
5483;SDS011;2764;48.794;8.326;2023-01-31T05:57:12;27.13;;;16.75;;
5483;SDS011;2764;48.794;8.326;2023-01-31T05:58:15;24.42;;;16.63;;
5483;SDS011;2764;48.794;8.326;2023-01-31T05:59:17;30.42;;;16.92;;
5483;SDS011;2764;48.794;8.326;2023-01-31T06:00:18;23.85;;;14.65;;
5483;SDS011;2764;48.794;8.326;2023-01-31T06:01:22;34.33;;;16.15;;
5483;SDS011;2764;48.794;8.326;2023-01-31T06:02:25;31.02;;;17.42;;
5483;SDS011;2764;48.794;8.326;2023-01-31T06:03:27;30.00;;;19.20;;
5483;SDS011;2764;48.794;8.326;2023-01-31T06:04:29;29.73;;;17.90;;
5483;SDS011;2764;48.794;8.326;2023-01-31T06:05:32;27.65;;;19.70;;
5483;SDS011;2764;48.794;8.326;2023-01-31T06:06:34;32.50;;;18.05;;
5483;SDS011;2764;48.794;8.326;2023-01-31T06:07:35;30.45;;;17.88;;
5483;SDS011;2764;48.794;8.326;2023-01-31T06:08:38;30.33;;;19.00;;
5483;SDS011;2764;48.794;8.326;2023-01-31T06:09:42;26.30;;;17.58;;
5483;SDS011;2764;48.794;8.326;2023-01-31T06:10:43;32.45;;;18.52;;
5483;SDS011;2764;48.794;8.326;2023-01-31T06:11:45;46.65;;;16.55;;
5483;SDS011;2764;48.794;8.326;2023-01-31T06:12:47;33.70;;;18.60;;
5483;SDS011;2764;48.794;8.326;2023-01-31T06:13:48;28.08;;;16.45;;
5483;SDS011;2764;48.794;8.326;2023-01-31T06:14:50;32.90;;;16.20;;
5483;SDS011;2764;48.794;8.326;2023-01-31T06:15:52;27.05;;;16.50;;
5483;SDS011;2764;48.794;8.326;2023-01-31T06:16:54;25.17;;;15.98;;
5483;SDS011;2764;48.794;8.326;2023-01-31T06:17:55;25.17;;;14.27;;
5483;SDS011;2764;48.794;8.326;2023-01-31T06:18:57;24.00;;;14.35;;
5483;SDS011;2764;48.794;8.326;2023-01-31T06:19:59;26.52;;;15.52;;
5483;SDS011;2764;48.794;8.326;2023-01-31T06:21:00;29.92;;;15.80;;
5483;SDS011;2764;48.794;8.326;2023-01-31T06:22:05;34.08;;;15.63;;
5483;SDS011;2764;48.794;8.326;2023-01-31T06:23:06;28.15;;;15.18;;
5483;SDS011;2764;48.794;8.326;2023-01-31T06:24:08;25.30;;;15.35;;
5483;SDS011;2764;48.794;8.326;2023-01-31T06:25:10;29.52;;;16.65;;
5483;SDS011;2764;48.794;8.326;2023-01-31T06:26:12;28.58;;;14.60;;
5483;SDS011;2764;48.794;8.326;2023-01-31T06:27:14;27.73;;;16.52;;
5483;SDS011;2764;48.794;8.326;2023-01-31T06:28:16;31.35;;;16.17;;
5483;SDS011;2764;48.794;8.326;2023-01-31T06:29:18;37.78;;;18.95;;
5483;SDS011;2764;48.794;8.326;2023-01-31T06:30:20;26.00;;;16.20;;
5483;SDS011;2764;48.794;8.326;2023-01-31T06:31:21;33.53;;;17.40;;
5483;SDS011;2764;48.794;8.326;2023-01-31T06:32:23;27.35;;;16.80;;
5483;SDS011;2764;48.794;8.326;2023-01-31T06:33:25;23.00;;;16.67;;
5483;SDS011;2764;48.794;8.326;2023-01-31T06:34:46;27.15;;;17.02;;
5483;SDS011;2764;48.794;8.326;2023-01-31T06:35:47;26.52;;;16.05;;
5483;SDS011;2764;48.794;8.326;2023-01-31T06:36:49;20.02;;;14.65;;
5483;SDS011;2764;48.794;8.326;2023-01-31T06:37:50;32.67;;;17.13;;
5483;SDS011;2764;48.794;8.326;2023-01-31T06:38:52;24.60;;;15.30;;
5483;SDS011;2764;48.794;8.326;2023-01-31T06:39:54;21.45;;;15.68;;
5483;SDS011;2764;48.794;8.326;2023-01-31T06:40:55;22.92;;;15.20;;
5483;SDS011;2764;48.794;8.326;2023-01-31T06:41:58;29.98;;;15.93;;
5483;SDS011;2764;48.794;8.326;2023-01-31T06:42:59;26.70;;;15.10;;
5483;SDS011;2764;48.794;8.326;2023-01-31T06:44:01;29.85;;;15.93;;
5483;SDS011;2764;48.794;8.326;2023-01-31T06:45:03;24.55;;;15.55;;
5483;SDS011;2764;48.794;8.326;2023-01-31T06:46:04;25.02;;;14.50;;
5483;SDS011;2764;48.794;8.326;2023-01-31T06:47:06;23.33;;;14.23;;
5483;SDS011;2764;48.794;8.326;2023-01-31T06:48:08;31.17;;;15.60;;
5483;SDS011;2764;48.794;8.326;2023-01-31T06:49:10;29.92;;;13.77;;
5483;SDS011;2764;48.794;8.326;2023-01-31T06:50:11;26.75;;;13.93;;
5483;SDS011;2764;48.794;8.326;2023-01-31T06:51:17;23.77;;;13.40;;
5483;SDS011;2764;48.794;8.326;2023-01-31T06:52:18;29.48;;;13.93;;
5483;SDS011;2764;48.794;8.326;2023-01-31T06:53:20;24.65;;;14.40;;
5483;SDS011;2764;48.794;8.326;2023-01-31T06:54:21;22.75;;;14.98;;
5483;SDS011;2764;48.794;8.326;2023-01-31T06:55:23;23.38;;;14.80;;
5483;SDS011;2764;48.794;8.326;2023-01-31T06:56:25;21.65;;;13.68;;
5483;SDS011;2764;48.794;8.326;2023-01-31T06:57:27;20.58;;;13.10;;
5483;SDS011;2764;48.794;8.326;2023-01-31T06:58:28;25.98;;;14.48;;
5483;SDS011;2764;48.794;8.326;2023-01-31T06:59:30;24.23;;;13.35;;
5483;SDS011;2764;48.794;8.326;2023-01-31T07:00:32;22.52;;;13.82;;
5483;SDS011;2764;48.794;8.326;2023-01-31T07:01:34;21.30;;;13.82;;
5483;SDS011;2764;48.794;8.326;2023-01-31T07:02:36;22.38;;;15.73;;
5483;SDS011;2764;48.794;8.326;2023-01-31T07:03:38;24.02;;;14.00;;
5483;SDS011;2764;48.794;8.326;2023-01-31T07:04:40;19.65;;;13.90;;
5483;SDS011;2764;48.794;8.326;2023-01-31T07:05:43;18.50;;;12.98;;
5483;SDS011;2764;48.794;8.326;2023-01-31T07:06:46;30.42;;;14.23;;
5483;SDS011;2764;48.794;8.326;2023-01-31T07:07:47;23.10;;;13.48;;
5483;SDS011;2764;48.794;8.326;2023-01-31T07:08:50;25.83;;;13.80;;
5483;SDS011;2764;48.794;8.326;2023-01-31T07:09:52;22.02;;;14.63;;